createdAt,value
2023-05-22T00:01:15.022Z,16.70
2023-05-22T00:03:42.531Z,16.90
2023-05-22T00:06:12.059Z,16.70
2023-05-22T00:08:39.796Z,16.70
2023-05-22T00:11:07.480Z,16.70
2023-05-22T00:13:35.195Z,16.80
2023-05-22T00:16:03.345Z,16.70
2023-05-22T00:18:31.026Z,16.10
2023-05-22T00:20:58.716Z,16.70
2023-05-22T00:23:27.954Z,16.80
2023-05-22T00:25:55.655Z,17.20
2023-05-22T00:28:23.239Z,16.80
2023-05-22T00:30:50.807Z,16.80
2023-05-22T00:33:18.775Z,16.80
2023-05-22T00:35:46.332Z,17.90
2023-05-22T00:38:30.243Z,14.80
2023-05-22T00:40:58.275Z,16.90
2023-05-22T00:43:27.236Z,17.30
2023-05-22T00:45:55.007Z,16.70
2023-05-22T00:48:23.062Z,17.10
2023-05-22T00:50:51.952Z,16.90
2023-05-22T00:53:24.127Z,16.70
2023-05-22T00:55:53.870Z,16.70
2023-05-22T00:58:21.929Z,16.70
2023-05-22T01:00:49.660Z,16.60
2023-05-22T01:03:19.130Z,16.60
2023-05-22T01:05:46.810Z,16.60
2023-05-22T01:08:14.315Z,16.80
2023-05-22T01:10:43.061Z,15.40
2023-05-22T01:13:30.625Z,16.50
2023-05-22T01:16:25.289Z,16.50
2023-05-22T01:19:06.400Z,16.50
2023-05-22T01:22:21.689Z,16.50
2023-05-22T01:25:21.767Z,16.50
2023-05-22T01:28:08.996Z,16.60
2023-05-22T01:30:44.692Z,16.50
2023-05-22T01:33:17.236Z,16.50
2023-05-22T01:35:48.113Z,16.50
2023-05-22T01:38:16.869Z,16.60
2023-05-22T01:40:46.672Z,16.40
2023-05-22T01:43:15.875Z,16.50
2023-05-22T01:45:43.552Z,16.30
2023-05-22T01:48:12.515Z,16.70
2023-05-22T01:50:41.248Z,16.40
2023-05-22T01:53:20.445Z,16.50
2023-05-22T01:55:56.487Z,16.30
2023-05-22T01:58:42.611Z,16.40
2023-05-22T02:01:14.260Z,16.40
2023-05-22T02:03:42.548Z,16.40
2023-05-22T02:06:13.998Z,16.30
2023-05-22T02:08:42.645Z,16.40
2023-05-22T02:11:13.171Z,16.50
2023-05-22T02:13:42.497Z,16.30
2023-05-22T02:16:12.295Z,16.20
2023-05-22T02:18:41.983Z,16.30
2023-05-22T02:21:09.749Z,16.30
2023-05-22T02:23:38.065Z,16.30
2023-05-22T02:26:05.935Z,16.30
2023-05-22T02:28:33.604Z,14.20
2023-05-22T02:31:02.717Z,16.00
2023-05-22T02:33:30.978Z,16.00
2023-05-22T02:35:59.539Z,16.10
2023-05-22T02:38:27.026Z,16.00
2023-05-22T02:40:54.658Z,16.00
2023-05-22T02:43:22.235Z,16.10
2023-05-22T02:45:49.691Z,16.00
2023-05-22T02:48:18.135Z,16.00
2023-05-22T02:50:47.879Z,16.10
2023-05-22T02:53:15.736Z,16.00
2023-05-22T02:55:43.706Z,15.90
2023-05-22T02:58:12.193Z,15.90
2023-05-22T03:00:40.118Z,15.20
2023-05-22T03:03:07.930Z,15.90
2023-05-22T03:05:35.590Z,15.90
2023-05-22T03:08:03.043Z,16.00
2023-05-22T03:10:31.208Z,15.80
2023-05-22T03:12:58.677Z,15.90
2023-05-22T03:15:26.342Z,15.40
2023-05-22T03:17:58.215Z,15.80
2023-05-22T03:20:25.871Z,15.80
2023-05-22T03:22:53.629Z,15.80
2023-05-22T03:25:22.013Z,15.80
2023-05-22T03:27:49.987Z,15.80
2023-05-22T03:30:17.627Z,15.70
2023-05-22T03:32:55.675Z,15.70
2023-05-22T03:35:25.240Z,15.60
2023-05-22T03:37:52.726Z,15.60
2023-05-22T03:40:20.361Z,15.60
2023-05-22T03:42:49.433Z,15.50
2023-05-22T03:45:17.770Z,16.70
2023-05-22T03:47:45.728Z,15.50
2023-05-22T03:50:13.302Z,15.40
2023-05-22T03:52:40.761Z,15.40
2023-05-22T03:55:08.869Z,15.50
2023-05-22T03:57:36.389Z,15.50
2023-05-22T04:00:09.821Z,16.50
2023-05-22T04:02:44.839Z,15.40
2023-05-22T04:05:12.839Z,15.60
2023-05-22T04:07:40.343Z,15.60
2023-05-22T04:10:08.332Z,15.50
2023-05-22T04:12:35.969Z,15.40
2023-05-22T04:15:03.950Z,15.50
2023-05-22T04:17:35.323Z,15.50
2023-05-22T04:20:06.416Z,15.70
2023-05-22T04:22:34.373Z,15.40
2023-05-22T04:25:04.211Z,17.50
2023-05-22T04:27:33.274Z,15.40
2023-05-22T04:30:02.382Z,15.50
2023-05-22T04:32:30.042Z,15.50
2023-05-22T04:34:58.478Z,15.50
2023-05-22T04:37:28.724Z,15.70
2023-05-22T04:40:03.022Z,15.70
2023-05-22T04:42:30.979Z,15.90
2023-05-22T04:44:58.658Z,15.90
2023-05-22T04:47:29.008Z,15.90
2023-05-22T04:49:57.176Z,14.90
2023-05-22T04:52:24.833Z,13.90
2023-05-22T04:54:52.821Z,16.00
2023-05-22T04:57:21.715Z,16.00
2023-05-22T04:59:49.481Z,16.10
2023-05-22T05:02:17.137Z,16.20
2023-05-22T05:04:44.849Z,16.10
2023-05-22T05:07:13.546Z,16.30
2023-05-22T05:09:41.028Z,16.30
2023-05-22T05:12:08.807Z,16.40
2023-05-22T05:14:37.131Z,16.60
2023-05-22T05:17:05.249Z,16.50
2023-05-22T05:19:36.856Z,16.50
2023-05-22T05:22:05.140Z,16.60
2023-05-22T05:24:32.956Z,16.70
2023-05-22T05:30:58.547Z,16.80
2023-05-22T05:33:52.467Z,16.90
2023-05-22T05:36:49.534Z,16.90
2023-05-22T05:39:17.964Z,17.00
2023-05-22T05:41:45.546Z,17.00
2023-05-22T05:44:12.940Z,17.10
2023-05-22T05:46:40.679Z,17.20
2023-05-22T05:49:11.882Z,17.40
2023-05-22T05:51:42.284Z,17.10
2023-05-22T05:54:11.177Z,17.50
2023-05-22T05:56:39.108Z,17.70
2023-05-22T05:59:06.739Z,17.80
2023-05-22T06:01:54.530Z,17.90
2023-05-22T06:04:28.256Z,17.80
2023-05-22T06:06:55.983Z,17.90
2023-05-22T06:09:36.334Z,18.00
2023-05-22T06:12:22.840Z,18.00
2023-05-22T06:14:50.836Z,18.10
2023-05-22T06:17:18.359Z,18.40
2023-05-22T06:19:46.489Z,18.50
2023-05-22T06:22:15.833Z,17.00
2023-05-22T06:24:45.893Z,18.50
2023-05-22T06:27:18.002Z,18.50
2023-05-22T06:29:45.736Z,17.10
2023-05-22T06:32:13.659Z,18.50
2023-05-22T06:34:45.376Z,18.60
2023-05-22T06:37:17.674Z,18.60
2023-05-22T06:39:46.625Z,17.80
2023-05-22T06:42:26.342Z,18.30
2023-05-22T06:45:12.439Z,18.90
2023-05-22T06:47:56.261Z,19.00
2023-05-22T06:50:24.042Z,19.10
2023-05-22T06:52:51.865Z,19.20
2023-05-22T06:55:19.587Z,19.20
2023-05-22T06:58:04.145Z,19.20
2023-05-22T07:00:34.789Z,19.50
2023-05-22T07:03:08.862Z,19.50
2023-05-22T08:06:51.422Z,21.40
2023-05-22T08:09:21.684Z,21.40
2023-05-22T09:10:57.664Z,22.60
2023-05-22T09:13:30.323Z,22.80
2023-05-22T09:34:30.594Z,23.50
2023-05-22T09:42:31.246Z,23.50
2023-05-22T09:45:04.536Z,24.00
2023-05-22T09:47:36.555Z,24.20
2023-05-22T09:50:07.334Z,24.30
2023-05-22T09:52:37.626Z,24.20
2023-05-22T09:55:09.526Z,24.00
2023-05-22T09:57:45.201Z,23.90
2023-05-22T10:00:17.595Z,23.80
2023-05-22T10:02:49.167Z,23.80
2023-05-22T10:05:22.044Z,23.80
2023-05-22T10:07:53.288Z,23.70
2023-05-22T10:19:15.012Z,23.80
2023-05-22T10:21:42.873Z,24.10
2023-05-22T10:24:13.738Z,24.60
2023-05-22T10:26:44.705Z,25.30
2023-05-22T10:29:23.511Z,25.30
2023-05-22T10:32:38.571Z,25.30
2023-05-22T10:35:21.204Z,25.30
2023-05-22T10:42:03.034Z,24.70
2023-05-22T10:44:32.900Z,24.60
2023-05-22T10:47:16.199Z,24.50
2023-05-22T11:24:20.475Z,24.70
2023-05-22T11:28:11.760Z,24.80
2023-05-22T11:41:46.375Z,24.80
2023-05-22T11:44:15.071Z,25.00
2023-05-22T11:46:42.729Z,25.00
2023-05-22T11:49:13.378Z,24.90
2023-05-22T11:51:41.144Z,24.50
2023-05-22T11:54:08.929Z,26.30
2023-05-22T11:56:36.555Z,23.30
2023-05-22T11:59:05.335Z,25.60
2023-05-22T12:01:33.355Z,26.10
2023-05-22T12:04:04.818Z,26.00
2023-05-22T12:06:34.093Z,25.80
2023-05-22T12:09:02.027Z,26.00
2023-05-22T12:11:35.259Z,27.70
2023-05-22T12:14:06.387Z,26.30
2023-05-22T12:16:36.617Z,26.50
2023-05-22T12:27:39.705Z,26.40
2023-05-22T12:30:13.254Z,26.40
2023-05-22T12:32:40.965Z,26.40
2023-05-22T12:35:16.023Z,26.50
2023-05-22T12:37:49.657Z,26.40
2023-05-22T12:40:18.057Z,26.80
2023-05-22T12:42:45.877Z,27.10
2023-05-22T12:45:14.097Z,26.50
2023-05-22T12:47:49.187Z,26.60
2023-05-22T12:54:37.337Z,26.60
2023-05-22T12:57:11.475Z,26.50
2023-05-22T12:59:45.417Z,26.50
2023-05-22T13:02:26.398Z,26.70
2023-05-22T13:04:55.369Z,26.50
2023-05-22T13:07:23.040Z,26.30
2023-05-22T13:09:51.992Z,26.40
2023-05-22T13:12:20.944Z,26.20
2023-05-22T13:14:48.595Z,26.40
2023-05-22T13:17:16.320Z,26.40
2023-05-22T13:19:46.852Z,26.40
2023-05-22T13:22:15.104Z,26.40
2023-05-22T13:24:42.971Z,26.20
2023-05-22T13:27:10.946Z,26.60
2023-05-22T13:29:38.645Z,26.50
2023-05-22T13:32:08.986Z,26.50
2023-05-22T13:38:05.473Z,26.70
2023-05-22T13:40:48.935Z,26.70
2023-05-22T13:46:42.134Z,26.40
2023-05-22T13:50:14.521Z,26.30
2023-05-22T13:53:01.233Z,25.60
2023-05-22T13:55:35.871Z,25.30
2023-05-22T13:58:06.047Z,24.30
2023-05-22T14:03:56.506Z,22.90
2023-05-22T14:06:26.718Z,24.50
2023-05-22T14:08:54.268Z,24.20
2023-05-22T14:11:26.208Z,24.20
2023-05-22T14:13:54.361Z,24.30
2023-05-22T14:16:23.026Z,24.50
2023-05-22T14:18:50.946Z,22.90
2023-05-22T14:21:20.347Z,24.90
2023-05-22T14:23:47.990Z,25.10
2023-05-22T14:26:15.718Z,25.20
2023-05-22T14:29:19.648Z,25.30
2023-05-22T14:36:24.340Z,25.30
2023-05-22T14:39:35.724Z,25.30
2023-05-22T14:42:03.416Z,25.40
2023-05-22T14:44:31.047Z,25.30
2023-05-22T14:47:12.247Z,23.70
2023-05-22T14:54:08.099Z,25.20
2023-05-22T15:00:31.704Z,25.10
2023-05-22T15:02:59.285Z,24.90
2023-05-22T15:05:29.910Z,25.00
2023-05-22T15:08:00.044Z,26.10
2023-05-22T15:15:32.612Z,24.90
2023-05-22T15:18:02.698Z,25.00
2023-05-22T15:20:31.114Z,24.90
2023-05-22T15:23:03.478Z,24.80
2023-05-22T15:25:34.158Z,24.70
2023-05-22T15:28:08.544Z,24.70
2023-05-22T15:30:38.775Z,24.70
2023-05-22T15:33:06.689Z,24.50
2023-05-22T15:35:38.049Z,24.50
2023-05-22T15:38:06.172Z,24.70
2023-05-22T15:40:33.775Z,24.70
2023-05-22T15:43:04.088Z,24.50
2023-05-22T15:45:31.802Z,24.40
2023-05-22T15:47:59.616Z,24.60
2023-05-22T15:50:27.151Z,24.40
2023-05-22T15:52:54.747Z,24.60
2023-05-22T15:55:22.211Z,24.50
2023-05-22T15:57:51.262Z,24.80
2023-05-22T16:00:21.268Z,24.50
2023-05-22T16:02:52.012Z,24.40
2023-05-22T16:05:51.194Z,24.30
2023-05-22T16:13:05.222Z,24.30
2023-05-22T16:16:18.580Z,24.10
2023-05-22T16:19:00.643Z,24.00
2023-05-22T16:21:32.151Z,24.00
2023-05-22T16:23:59.962Z,24.00
2023-05-22T16:26:30.192Z,23.90
2023-05-22T16:28:58.019Z,24.10
2023-05-22T16:31:29.277Z,23.80
2023-05-22T16:33:57.234Z,23.00
2023-05-22T16:36:27.268Z,23.90
2023-05-22T16:38:55.200Z,21.70
2023-05-22T16:41:24.184Z,23.60
2023-05-22T16:43:58.010Z,23.60
2023-05-22T16:46:28.672Z,23.50
2023-05-22T16:48:56.399Z,23.80
2023-05-22T16:51:24.304Z,23.50
2023-05-22T16:54:01.623Z,23.70
2023-05-22T16:56:32.932Z,23.60
2023-05-22T16:59:02.023Z,23.70
2023-05-22T17:01:31.902Z,23.60
2023-05-22T17:08:03.909Z,23.70
2023-05-22T17:10:41.723Z,23.60
2023-05-22T17:13:10.794Z,23.70
2023-05-22T17:15:38.849Z,23.50
2023-05-22T17:18:06.929Z,23.40
2023-05-22T17:20:36.001Z,22.10
2023-05-22T17:23:05.838Z,23.10
2023-05-22T17:25:35.140Z,23.00
2023-05-22T17:28:02.889Z,21.50
2023-05-22T17:30:33.239Z,22.90
2023-05-22T17:33:03.722Z,23.00
2023-05-22T17:35:31.325Z,22.80
2023-05-22T17:37:58.996Z,22.70
2023-05-22T17:40:39.973Z,22.60
2023-05-22T17:46:11.890Z,22.70
2023-05-22T17:54:48.979Z,23.20
2023-05-22T17:57:30.919Z,23.80
2023-05-22T18:00:01.407Z,22.90
2023-05-22T18:02:39.266Z,21.90
2023-05-22T18:05:11.499Z,22.10
2023-05-22T18:07:39.506Z,21.50
2023-05-22T18:10:09.626Z,20.60
2023-05-22T18:12:43.442Z,21.80
2023-05-22T18:15:13.598Z,21.80
2023-05-22T18:17:41.675Z,21.60
2023-05-22T18:20:12.389Z,21.70
2023-05-22T18:22:43.698Z,22.90
2023-05-22T18:25:15.063Z,21.40
2023-05-22T18:27:48.348Z,21.60
2023-05-22T18:30:16.370Z,21.30
2023-05-22T18:32:44.215Z,21.30
2023-05-22T18:35:16.902Z,21.20
2023-05-22T18:37:49.232Z,21.30
2023-05-22T18:40:17.294Z,21.10
2023-05-22T18:42:45.067Z,21.10
2023-05-22T18:45:15.002Z,21.10
2023-05-22T18:47:42.727Z,21.10
2023-05-22T18:50:12.684Z,21.00
2023-05-22T18:52:42.393Z,19.20
2023-05-22T18:55:11.008Z,22.20
2023-05-22T18:57:38.642Z,20.80
2023-05-22T19:00:08.165Z,19.50
2023-05-22T19:02:36.440Z,20.80
2023-05-22T19:05:04.783Z,18.80
2023-05-22T19:11:01.618Z,20.90
2023-05-22T19:13:30.560Z,20.80
2023-05-22T19:15:58.346Z,20.40
2023-05-22T19:18:27.468Z,20.30
2023-05-22T19:20:55.255Z,20.40
2023-05-22T19:23:23.084Z,18.80
2023-05-22T19:25:52.548Z,20.40
2023-05-22T19:28:20.162Z,20.20
2023-05-22T19:30:47.880Z,20.10
2023-05-22T19:33:16.499Z,20.10
2023-05-22T19:35:44.725Z,20.20
2023-05-22T19:38:15.200Z,20.20
2023-05-22T19:40:55.016Z,19.40
2023-05-22T19:48:13.576Z,19.90
2023-05-22T19:50:41.601Z,19.70
2023-05-22T19:53:09.569Z,19.60
2023-05-22T19:55:43.637Z,17.90
2023-05-22T19:58:11.752Z,19.60
2023-05-22T20:00:41.177Z,19.60
2023-05-22T20:03:09.269Z,19.40
2023-05-22T20:05:36.891Z,19.70
2023-05-22T20:08:04.406Z,19.40
2023-05-22T20:10:33.490Z,19.40
2023-05-22T20:13:01.056Z,19.30
2023-05-22T20:15:30.571Z,19.20
2023-05-22T20:17:58.281Z,19.20
2023-05-22T20:20:26.001Z,19.10
2023-05-22T20:22:53.903Z,19.10
2023-05-22T20:25:22.365Z,18.80
2023-05-22T20:27:53.281Z,18.90
2023-05-22T20:30:20.857Z,19.00
2023-05-22T20:32:48.647Z,18.90
2023-05-22T20:35:20.334Z,19.30
2023-05-22T20:37:53.393Z,18.90
2023-05-22T20:40:21.842Z,18.80
2023-05-22T20:42:50.483Z,18.60
2023-05-22T20:45:18.072Z,18.70
2023-05-22T20:47:45.845Z,18.60
2023-05-22T20:50:13.926Z,18.70
2023-05-22T20:52:45.958Z,18.60
2023-05-22T20:55:13.659Z,18.50
2023-05-22T20:57:42.633Z,18.00
2023-05-22T21:00:11.235Z,18.40
2023-05-22T21:02:41.444Z,18.30
2023-05-22T21:05:09.466Z,18.30
2023-05-22T21:07:36.987Z,18.20
2023-05-22T21:10:04.763Z,18.20
2023-05-22T21:12:32.169Z,18.10
2023-05-22T21:14:59.774Z,18.00
2023-05-22T21:17:27.399Z,17.90
2023-05-22T21:19:56.640Z,17.90
2023-05-22T21:22:24.342Z,17.80
2023-05-22T21:24:51.871Z,17.90
2023-05-22T21:27:19.419Z,17.70
2023-05-22T21:29:46.904Z,17.70
2023-05-22T21:32:14.397Z,17.60
2023-05-22T21:34:41.881Z,17.70
2023-05-22T21:37:09.878Z,17.80
2023-05-22T21:39:37.392Z,17.50
2023-05-22T21:42:05.044Z,17.50
2023-05-22T21:44:38.856Z,17.50
2023-05-22T21:47:06.567Z,17.50
2023-05-22T21:49:34.070Z,18.00
2023-05-22T21:52:01.467Z,17.50
2023-05-22T21:54:28.911Z,17.40
2023-05-22T21:56:57.605Z,17.60
2023-05-22T21:59:25.176Z,17.70
2023-05-22T22:01:52.758Z,17.20
2023-05-22T22:04:20.788Z,17.30
2023-05-22T22:06:48.343Z,17.10
2023-05-22T22:09:16.050Z,17.10
2023-05-22T22:11:43.572Z,17.40
2023-05-22T22:14:11.036Z,17.10
2023-05-22T22:16:40.714Z,17.10
2023-05-22T22:19:09.425Z,17.00
2023-05-22T22:21:37.254Z,17.40
2023-05-22T22:24:05.084Z,16.90
2023-05-22T22:26:33.032Z,16.90
2023-05-22T22:29:00.512Z,17.00
2023-05-22T22:31:28.010Z,16.90
2023-05-22T22:33:55.884Z,16.90
2023-05-22T22:36:23.527Z,16.90
2023-05-22T22:38:51.076Z,17.70
2023-05-22T22:41:18.527Z,19.00
2023-05-22T22:43:46.391Z,17.10
2023-05-22T22:46:14.156Z,17.00
2023-05-22T22:48:41.795Z,16.90
2023-05-22T22:51:09.708Z,16.90
2023-05-22T22:53:37.398Z,16.90
2023-05-22T22:56:05.016Z,17.30
2023-05-22T22:58:32.494Z,16.90
2023-05-22T23:01:00.277Z,16.80
2023-05-22T23:03:28.102Z,16.80
2023-05-22T23:05:55.607Z,16.80
2023-05-22T23:08:23.264Z,18.00
2023-05-22T23:10:50.864Z,16.70
2023-05-22T23:13:18.461Z,16.70
2023-05-22T23:15:46.034Z,17.30
2023-05-22T23:18:13.967Z,16.80
2023-05-22T23:20:41.548Z,16.70
2023-05-22T23:23:09.003Z,16.60
2023-05-22T23:25:36.604Z,16.60
2023-05-22T23:28:04.107Z,16.60
2023-05-22T23:30:31.750Z,16.60
2023-05-22T23:32:59.307Z,16.60
2023-05-22T23:35:26.903Z,16.60
2023-05-22T23:37:54.378Z,16.70
2023-05-22T23:40:21.800Z,16.50
2023-05-22T23:42:49.313Z,16.50
2023-05-22T23:45:16.956Z,16.50
2023-05-22T23:47:44.521Z,17.10
2023-05-22T23:50:11.999Z,16.50
2023-05-22T23:52:39.564Z,16.50
2023-05-22T23:55:07.949Z,16.50
2023-05-22T23:57:35.645Z,16.40
